アムステルダム/スキポール の空港の天気 - METARとTAF

スキポール空港(アムステルダム) ( EHAM / AMS ) - オランダ アムステルダム
飛行場実況気象(Metar)
観測時間08/22 18:25 CEST (08/22 16:25 UTC)
風向・風速西南西 6m/s
視程10km以上
天気現象
なし
気温21℃
湿度46%
気圧1025hPa
METAREHAM 221625Z 25012KT CAVOK 21/09 Q1025 NOSIG
過去の天気等 Google飛行場航空写真 Wunderground天気予報

過去48時間のMETAR

飛行場予報(TAF)
発表時間: 8/22 13:11 CEST (8/22 11:11 UTC)
予報対象時間: 22日14時 CEST ~ 23日20時 CEST
風向・風速西南西 6m/s
視程10km以上
なし
22日19時 CEST ~ 22日22時 CEST に徐々に
風向・風速南 2m/s
23日16時 CEST ~ 23日19時 CEST に徐々に
風向・風速北東 3m/s
TAF EHAM 221111Z 2212/2318 25011KT CAVOK
BECMG 2217/2220 18004KT
BECMG 2314/2317 04005KT